Time;durP1;ratioP1;P1;durP2;ratioP2;P2;SDS_P1;SDS_P2;PMS_P1;PMS_P2;Temp;Humidity;BMP_temperature;BMP_pressure;BME280_temperature;BME280_humidity;BME280_pressure;Samples;Min_cycle;Max_cycle;Signal;HPM_P1;HPM_P2
2022/11/20 00:01:43;;;;;;;10.18;5.90;;;-1.60;95.70;;;;;;5114879;27;20099;-60
2022/11/20 00:04:11;;;;;;;9.90;6.15;;;-1.60;95.80;;;;;;5090822;28;20047;-60
2022/11/20 00:06:37;;;;;;;9.88;5.55;;;-1.60;95.90;;;;;;5070801;28;20048;-61
2022/11/20 00:09:02;;;;;;;11.45;6.05;;;-1.60;96.00;;;;;;5095185;28;20128;-60
2022/11/20 00:11:29;;;;;;;10.18;5.97;;;-1.60;96.00;;;;;;5092361;28;20022;-61
2022/11/20 00:13:57;;;;;;;11.27;5.95;;;-1.70;96.00;;;;;;5094778;28;20433;-60
2022/11/20 00:16:24;;;;;;;9.57;5.65;;;-1.70;96.10;;;;;;5092412;28;20089;-60
2022/11/20 00:18:51;;;;;;;10.20;5.97;;;-1.70;96.20;;;;;;5092159;28;20081;-60
2022/11/20 00:21:19;;;;;;;10.52;5.70;;;-1.70;96.20;;;;;;5092326;28;20368;-60
2022/11/20 00:23:45;;;;;;;9.15;5.90;;;-1.70;96.30;;;;;;5070875;28;20063;-60
2022/11/20 00:26:13;;;;;;;9.75;6.43;;;-1.70;96.30;;;;;;5089597;28;20056;-60
2022/11/20 00:28:39;;;;;;;10.70;6.03;;;-1.80;96.40;;;;;;5091888;28;20024;-60
2022/11/20 00:31:11;;;;;;;11.77;7.22;;;-1.80;96.40;;;;;;5091688;28;20051;-60
2022/11/20 00:33:36;;;;;;;10.50;6.00;;;-1.80;96.50;;;;;;5073522;28;20024;-60
2022/11/20 00:36:04;;;;;;;9.02;5.53;;;-1.80;96.50;;;;;;5096459;28;20031;-60
2022/11/20 00:38:31;;;;;;;10.43;6.22;;;-1.90;96.50;;;;;;5089978;28;20043;-60
2022/11/20 00:40:58;;;;;;;11.10;6.20;;;-1.90;96.60;;;;;;5095360;28;20366;-60
2022/11/20 00:43:24;;;;;;;9.77;6.25;;;-1.90;96.60;;;;;;5096050;27;20023;-60
2022/11/20 00:45:50;;;;;;;11.50;6.30;;;-1.90;96.60;;;;;;5088828;28;20469;-60
2022/11/20 00:48:15;;;;;;;10.73;5.97;;;-1.90;96.70;;;;;;5092401;28;20026;-60
2022/11/20 00:50:41;;;;;;;10.95;6.00;;;-1.90;96.70;;;;;;5090078;28;20044;-60
2022/11/20 00:53:07;;;;;;;11.07;5.95;;;-1.90;96.80;;;;;;5090385;28;20167;-60
2022/11/20 00:55:32;;;;;;;10.82;7.05;;;-2.00;96.80;;;;;;5087928;28;20492;-60
2022/11/20 00:57:58;;;;;;;11.98;6.18;;;-2.00;96.70;;;;;;5089087;28;20061;-60
2022/11/20 01:00:23;;;;;;;10.43;6.03;;;-2.00;96.80;;;;;;5091542;28;20019;-60
2022/11/20 01:02:49;;;;;;;10.23;5.90;;;-2.00;96.80;;;;;;5091262;28;20519;-60
2022/11/20 01:05:14;;;;;;;11.02;6.55;;;-2.00;96.90;;;;;;5089393;28;20036;-60
2022/11/20 01:07:40;;;;;;;11.05;6.78;;;-2.10;96.90;;;;;;5073125;28;20028;-60
2022/11/20 01:10:06;;;;;;;12.90;6.55;;;-2.10;96.90;;;;;;5073418;28;20370;-60
2022/11/20 01:12:31;;;;;;;10.57;6.05;;;-2.10;96.90;;;;;;5087873;28;20024;-61
2022/11/20 01:14:57;;;;;;;11.40;6.45;;;-2.10;97.00;;;;;;5121199;28;20062;-60
2022/11/20 01:17:22;;;;;;;10.75;6.03;;;-2.20;97.10;;;;;;5106450;28;20382;-60
2022/11/20 01:19:50;;;;;;;9.63;6.07;;;-2.10;97.20;;;;;;5088346;28;20020;-60
2022/11/20 01:22:15;;;;;;;8.73;5.97;;;-2.20;97.20;;;;;;5089579;28;20070;-60
2022/11/20 01:24:41;;;;;;;11.70;7.13;;;-2.20;97.20;;;;;;5093529;28;20555;-60
2022/11/20 01:27:06;;;;;;;10.88;5.80;;;-2.10;97.20;;;;;;5090976;28;20032;-60
2022/11/20 01:29:32;;;;;;;11.73;6.85;;;-2.20;97.20;;;;;;5091080;28;20036;-60
2022/11/20 01:31:57;;;;;;;11.35;6.35;;;-2.20;97.20;;;;;;5088135;28;20121;-60
2022/11/20 01:34:23;;;;;;;10.85;6.18;;;-2.30;97.30;;;;;;5072975;28;20024;-60
2022/11/20 01:36:49;;;;;;;15.13;8.50;;;-2.30;97.30;;;;;;5088563;28;20020;-60
2022/11/20 01:39:18;;;;;;;11.90;6.88;;;-2.30;97.40;;;;;;5091034;28;20081;-60
2022/11/20 01:44:56;;;;;;;12.48;6.82;;;-2.30;97.70;;;;;;5091053;28;20073;-60
2022/11/20 01:47:28;;;;;;;12.10;6.97;;;-2.30;97.50;;;;;;5092373;28;20103;-61
2022/11/20 01:50:04;;;;;;;12.23;7.13;;;-2.40;97.50;;;;;;5092363;28;20021;-61
2022/11/20 01:52:45;;;;;;;11.65;7.22;;;-2.40;97.50;;;;;;5091081;28;20401;-60
2022/11/20 01:55:19;;;;;;;11.70;6.40;;;-2.40;97.60;;;;;;5090960;28;20024;-60
2022/11/20 01:57:48;;;;;;;13.13;7.70;;;-2.40;97.70;;;;;;5088133;28;20031;-60
2022/11/20 02:00:15;;;;;;;11.77;7.15;;;-2.40;97.70;;;;;;5093665;28;20024;-66
2022/11/20 02:02:46;;;;;;;12.52;7.25;;;-2.50;97.70;;;;;;5089257;28;20024;-60
2022/11/20 02:05:31;;;;;;;13.25;7.82;;;-2.50;98.00;;;;;;5091115;28;20097;-60
2022/11/20 02:07:58;;;;;;;12.23;7.63;;;-2.40;97.90;;;;;;5091750;28;20022;-60
2022/11/20 02:10:25;;;;;;;14.35;8.02;;;-2.50;97.80;;;;;;5075722;28;20035;-60
2022/11/20 02:15:35;;;;;;;14.13;7.78;;;-2.50;97.90;;;;;;5097890;28;20070;-60
2022/11/20 02:18:01;;;;;;;15.95;8.60;;;-2.60;98.00;;;;;;5073415;28;20056;-60
2022/11/20 02:20:26;;;;;;;16.80;8.45;;;-2.60;98.10;;;;;;5076476;28;20028;-60
2022/11/20 02:23:01;;;;;;;13.32;8.63;;;-2.60;98.20;;;;;;5101904;27;20525;-60
2022/11/20 02:25:29;;;;;;;16.00;7.95;;;-2.60;98.30;;;;;;5094593;28;20028;-60
2022/11/20 02:27:55;;;;;;;10.88;7.05;;;-2.60;98.30;;;;;;5094206;28;20031;-60
2022/11/20 02:30:21;;;;;;;12.00;7.03;;;-2.60;98.40;;;;;;5093898;28;20035;-60
2022/11/20 02:32:46;;;;;;;12.65;7.07;;;-2.60;98.40;;;;;;5094332;28;20020;-60
2022/11/20 02:35:18;;;;;;;11.50;7.38;;;-2.60;98.40;;;;;;5115386;27;20063;-60
2022/11/20 02:37:47;;;;;;;11.93;7.03;;;-2.50;98.50;;;;;;5089572;28;20107;-60
2022/11/20 02:40:12;;;;;;;11.88;6.65;;;-2.60;98.50;;;;;;5078673;28;20574;-60
2022/11/20 02:42:38;;;;;;;13.13;6.95;;;-2.60;98.50;;;;;;5096514;28;20027;-60
2022/11/20 02:45:05;;;;;;;12.75;7.07;;;-2.60;98.50;;;;;;5072864;28;20027;-60
2022/11/20 02:47:31;;;;;;;12.10;6.70;;;-2.60;98.50;;;;;;5093546;27;20046;-60
2022/11/20 02:49:56;;;;;;;11.85;7.15;;;-2.60;98.60;;;;;;5093125;28;20028;-60
2022/11/20 02:52:22;;;;;;;13.90;7.28;;;-2.70;98.60;;;;;;5091171;28;20115;-60
2022/11/20 02:54:47;;;;;;;13.65;8.18;;;-2.70;98.70;;;;;;5072728;28;20020;-60
2022/11/20 02:57:13;;;;;;;13.38;7.97;;;-2.70;98.70;;;;;;5073293;28;20020;-60
2022/11/20 02:59:38;;;;;;;11.13;7.20;;;-2.70;98.80;;;;;;5091309;28;20050;-60
2022/11/20 03:02:04;;;;;;;12.68;6.85;;;-2.70;98.80;;;;;;5093905;28;20058;-60
2022/11/20 03:04:30;;;;;;;10.63;6.30;;;-2.70;98.80;;;;;;5094473;27;20073;-60
2022/11/20 03:06:56;;;;;;;12.10;6.80;;;-2.70;98.90;;;;;;5099141;28;20020;-60
2022/11/20 03:09:21;;;;;;;10.68;6.70;;;-2.70;98.90;;;;;;5095445;28;20128;-60
2022/11/20 03:11:47;;;;;;;12.98;8.25;;;-2.80;99.00;;;;;;5092209;28;20114;-60
2022/11/20 03:14:13;;;;;;;12.98;7.47;;;-2.70;99.10;;;;;;5094458;28;20035;-60
2022/11/20 03:16:38;;;;;;;15.38;8.48;;;-2.70;99.10;;;;;;5095619;28;20031;-60
2022/11/20 03:19:04;;;;;;;16.85;9.40;;;-2.70;99.20;;;;;;5079965;28;20030;-60
2022/11/20 03:21:29;;;;;;;16.02;8.63;;;-2.70;99.30;;;;;;5096394;27;20043;-60
2022/11/20 03:23:55;;;;;;;13.95;8.23;;;-2.70;99.30;;;;;;5092317;28;20529;-60
2022/11/20 03:26:25;;;;;;;10.98;7.45;;;-2.70;99.30;;;;;;5075802;28;20012;-60
2022/11/20 03:28:52;;;;;;;;;;;-2.70;99.40;;;;;;5123022;27;20024;-60
2022/11/20 03:31:20;;;;;;;10.85;6.75;;;-2.80;99.30;;;;;;5082394;28;20011;-60
2022/11/20 03:33:46;;;;;;;11.77;6.38;;;-2.80;99.50;;;;;;5089851;28;20035;-60
2022/11/20 03:36:13;;;;;;;12.23;7.30;;;-2.80;99.50;;;;;;5090132;28;20016;-60
2022/11/20 03:38:39;;;;;;;13.10;7.20;;;-2.80;99.50;;;;;;5093211;28;20020;-60
2022/11/20 03:41:19;;;;;;;12.75;6.80;;;-2.80;99.50;;;;;;5095919;28;20016;-60
2022/11/20 03:44:05;;;;;;;11.63;6.75;;;-2.80;99.50;;;;;;5092151;28;20058;-60
2022/11/20 03:46:31;;;;;;;10.07;6.60;;;-2.80;99.60;;;;;;5074593;28;20111;-60
2022/11/20 03:48:57;;;;;;;10.75;6.43;;;-2.90;99.60;;;;;;5093103;28;20021;-60
2022/11/20 03:51:25;;;;;;;12.15;6.95;;;-2.90;99.90;;;;;;5090534;28;20031;-60
2022/11/20 03:53:52;;;;;;;11.45;6.85;;;-2.90;99.60;;;;;;5094755;28;20024;-60
2022/11/20 03:56:22;;;;;;;10.73;6.47;;;-2.90;99.70;;;;;;5089693;28;20039;-60
2022/11/20 03:58:47;;;;;;;12.57;6.65;;;-2.90;99.70;;;;;;5071744;28;20024;-60
2022/11/20 04:01:18;;;;;;;12.38;7.22;;;-2.90;99.70;;;;;;5071280;28;20350;-60
2022/11/20 04:03:45;;;;;;;10.25;6.22;;;-2.90;99.80;;;;;;5096679;28;20054;-60
2022/11/20 04:06:11;;;;;;;10.20;6.68;;;-3.00;99.80;;;;;;5089532;28;20027;-60
2022/11/20 04:08:38;;;;;;;11.88;6.65;;;-3.00;99.80;;;;;;5092396;28;20091;-60
2022/11/20 04:11:10;;;;;;;10.80;6.38;;;-3.00;99.80;;;;;;5072568;28;20068;-60
2022/11/20 04:13:36;;;;;;;10.40;6.43;;;-3.00;99.80;;;;;;5089612;28;20117;-60
2022/11/20 04:16:02;;;;;;;11.07;6.72;;;-3.00;99.80;;;;;;5092096;27;20058;-60
2022/11/20 04:18:27;;;;;;;11.60;6.90;;;-3.00;99.80;;;;;;5089379;28;20067;-60
2022/11/20 04:20:53;;;;;;;10.10;6.43;;;-3.10;99.80;;;;;;5097994;27;20392;-60
2022/11/20 04:23:18;;;;;;;9.73;5.78;;;-3.10;99.90;;;;;;5092448;28;20431;-60
2022/11/20 04:25:44;;;;;;;11.50;7.13;;;-3.10;99.90;;;;;;5090822;28;20061;-60
2022/11/20 04:28:09;;;;;;;10.32;6.45;;;-3.10;99.90;;;;;;5091377;28;20028;-60
2022/11/20 04:30:35;;;;;;;10.77;5.95;;;-3.10;99.80;;;;;;5092398;28;20124;-60
2022/11/20 04:33:00;;;;;;;12.50;7.13;;;-3.10;99.90;;;;;;5092285;28;20419;-60
2022/11/20 04:35:26;;;;;;;12.38;6.65;;;-3.10;99.90;;;;;;5091669;28;20040;-60
2022/11/20 04:37:52;;;;;;;11.40;6.63;;;-3.10;99.90;;;;;;5094429;28;20073;-60
2022/11/20 04:40:17;;;;;;;10.50;7.25;;;-3.20;99.90;;;;;;5092201;28;20032;-60
2022/11/20 04:42:43;;;;;;;11.40;6.60;;;-3.20;99.90;;;;;;5089244;28;20047;-60
2022/11/20 04:45:09;;;;;;;11.00;6.32;;;-3.20;99.90;;;;;;5089089;28;20427;-60
2022/11/20 04:47:34;;;;;;;11.07;6.80;;;-3.20;99.90;;;;;;5090192;28;20378;-60
2022/11/20 04:49:59;;;;;;;10.27;6.40;;;-3.20;99.90;;;;;;5089489;28;20408;-60
2022/11/20 04:52:25;;;;;;;13.05;6.95;;;-3.20;99.90;;;;;;5093945;28;20016;-60
2022/11/20 04:54:52;;;;;;;11.55;6.88;;;-3.20;99.90;;;;;;5088772;28;20063;-60
2022/11/20 04:57:18;;;;;;;9.23;6.05;;;-3.20;99.90;;;;;;5088693;28;20016;-60
2022/11/20 04:59:43;;;;;;;13.05;7.18;;;-3.20;99.90;;;;;;5091713;28;20020;-60
2022/11/20 05:02:10;;;;;;;15.25;7.90;;;-3.20;99.90;;;;;;5090896;28;20058;-61
2022/11/20 05:04:35;;;;;;;14.07;7.82;;;-3.30;99.90;;;;;;5089542;28;20028;-60
2022/11/20 05:07:01;;;;;;;11.60;7.55;;;-3.30;99.90;;;;;;5091711;28;20042;-60
2022/11/20 05:09:26;;;;;;;12.55;7.75;;;-3.30;99.90;;;;;;5089197;28;20020;-60
2022/11/20 05:11:52;;;;;;;13.25;7.88;;;-3.40;99.90;;;;;;5073342;28;20114;-60
2022/11/20 05:14:17;;;;;;;12.48;7.25;;;-3.40;99.90;;;;;;5094085;28;20074;-60
2022/11/20 05:16:43;;;;;;;13.60;7.72;;;-3.30;99.90;;;;;;5092131;28;20392;-60
2022/11/20 05:19:09;;;;;;;11.48;7.28;;;-3.40;99.90;;;;;;5070336;28;20095;-60
2022/11/20 05:21:34;;;;;;;10.45;6.70;;;-3.30;99.90;;;;;;5096686;28;20032;-60
2022/11/20 05:24:00;;;;;;;10.55;7.20;;;-3.40;99.90;;;;;;5088006;28;20024;-60
2022/11/20 05:26:25;;;;;;;10.57;6.50;;;-3.40;99.90;;;;;;5094270;28;20020;-60
2022/11/20 05:28:51;;;;;;;11.95;7.25;;;-3.30;99.90;;;;;;5088701;28;20023;-60
2022/11/20 05:31:22;;;;;;;9.68;5.43;;;-3.30;99.90;;;;;;5088422;28;20047;-60
2022/11/20 05:33:48;;;;;;;10.40;5.78;;;-3.30;99.90;;;;;;5092840;28;20020;-60
2022/11/20 05:36:15;;;;;;;12.55;7.18;;;-3.40;99.90;;;;;;5088953;28;20093;-60
2022/11/20 05:38:42;;;;;;;11.25;6.47;;;-3.40;99.90;;;;;;5091030;28;20016;-60
2022/11/20 05:41:15;;;;;;;12.23;7.60;;;-3.50;99.90;;;;;;5090074;28;20061;-60
2022/11/20 05:43:43;;;;;;;14.02;7.47;;;-3.50;99.90;;;;;;5093630;28;20040;-60
2022/11/20 05:46:11;;;;;;;11.80;7.20;;;-3.50;99.90;;;;;;5092464;28;20031;-60
2022/11/20 05:48:38;;;;;;;13.18;7.28;;;-3.50;99.90;;;;;;5095070;28;20062;-60
2022/11/20 05:51:08;;;;;;;10.68;6.80;;;-3.50;99.90;;;;;;5094973;28;20028;-60
2022/11/20 05:53:35;;;;;;;10.25;6.30;;;-3.50;99.90;;;;;;5095050;28;20074;-60
2022/11/20 05:56:03;;;;;;;11.48;6.68;;;-3.50;99.90;;;;;;5076871;28;20035;-60
2022/11/20 05:58:29;;;;;;;12.25;6.55;;;-3.50;99.90;;;;;;5097779;28;20073;-60
2022/11/20 06:01:02;;;;;;;13.55;7.75;;;-3.50;99.90;;;;;;5091975;28;20024;-60
2022/11/20 06:03:28;;;;;;;11.85;7.97;;;-3.50;99.90;;;;;;5095469;28;20056;-60
2022/11/20 06:05:53;;;;;;;12.15;7.85;;;-3.50;99.90;;;;;;5095920;28;20074;-60
2022/11/20 06:08:19;;;;;;;11.98;6.95;;;-3.60;99.90;;;;;;5091824;28;20099;-60
2022/11/20 06:10:44;;;;;;;11.85;6.57;;;-3.60;99.90;;;;;;5094612;28;20494;-60
2022/11/20 06:13:10;;;;;;;11.45;6.75;;;-3.70;99.90;;;;;;5091931;28;20023;-60
2022/11/20 06:15:35;;;;;;;11.60;7.47;;;-3.70;99.90;;;;;;5097286;28;20090;-60
2022/11/20 06:18:01;;;;;;;12.05;7.18;;;-3.70;99.90;;;;;;5073603;28;20449;-60
2022/11/20 06:20:26;;;;;;;10.25;6.38;;;-3.60;99.90;;;;;;5091707;28;20080;-60
2022/11/20 06:22:52;;;;;;;11.10;6.93;;;-3.60;99.90;;;;;;5099982;27;20023;-60
2022/11/20 06:25:17;;;;;;;13.38;8.52;;;-3.60;99.90;;;;;;5091509;28;20050;-60
2022/11/20 06:27:43;;;;;;;13.00;7.90;;;-3.60;99.90;;;;;;5073331;28;20061;-60
2022/11/20 06:30:09;;;;;;;13.98;8.15;;;-3.50;99.90;;;;;;5073359;28;20047;-60
2022/11/20 06:32:34;;;;;;;12.68;7.43;;;-3.50;99.90;;;;;;5091154;28;20048;-60
2022/11/20 06:35:00;;;;;;;13.43;7.57;;;-3.50;99.90;;;;;;5090995;28;20047;-60
2022/11/20 06:37:25;;;;;;;11.82;6.95;;;-3.60;99.90;;;;;;5091536;28;20028;-60
2022/11/20 06:39:51;;;;;;;11.73;7.35;;;-3.60;99.90;;;;;;5096822;28;20480;-60
2022/11/20 06:42:16;;;;;;;12.55;7.70;;;-3.60;99.90;;;;;;5097103;28;20035;-60
2022/11/20 06:44:42;;;;;;;12.13;7.47;;;-3.60;99.90;;;;;;5093959;27;20551;-60
2022/11/20 06:47:07;;;;;;;11.60;6.82;;;-3.60;99.90;;;;;;5095565;27;20036;-60
2022/11/20 06:49:34;;;;;;;14.43;7.53;;;-3.60;99.90;;;;;;5113688;27;20053;-60
2022/11/20 06:51:59;;;;;;;11.95;7.20;;;-3.60;99.90;;;;;;5104849;28;20035;-60
2022/11/20 06:54:25;;;;;;;11.75;7.78;;;-3.60;99.90;;;;;;5092969;28;20465;-60
2022/11/20 06:56:50;;;;;;;14.18;7.25;;;-3.60;99.90;;;;;;5078265;28;20035;-60
2022/11/20 06:59:16;;;;;;;12.02;7.10;;;-3.60;99.90;;;;;;5094850;28;20035;-60
2022/11/20 07:01:41;;;;;;;12.20;6.82;;;-3.60;99.90;;;;;;5094772;28;20565;-60
2022/11/20 07:04:07;;;;;;;13.30;7.15;;;-3.60;99.90;;;;;;5107636;28;20034;-60
2022/11/20 07:06:32;;;;;;;12.48;7.45;;;-3.60;99.90;;;;;;5095017;28;20034;-60
2022/11/20 07:08:58;;;;;;;12.82;7.35;;;-3.60;99.90;;;;;;5094928;28;20315;-60
2022/11/20 07:11:24;;;;;;;10.77;6.78;;;-3.60;99.90;;;;;;5106781;28;20094;-60
2022/11/20 07:13:50;;;;;;;9.25;6.05;;;-3.70;99.90;;;;;;5095078;28;20046;-60
2022/11/20 07:16:16;;;;;;;10.23;6.60;;;-3.60;99.90;;;;;;5096129;28;20024;-60
2022/11/20 07:18:41;;;;;;;10.27;6.72;;;-3.70;99.90;;;;;;5109026;28;20512;-60
2022/11/20 07:21:09;;;;;;;10.45;6.43;;;-3.70;99.90;;;;;;5104989;27;20033;-60
2022/11/20 07:23:35;;;;;;;11.00;6.38;;;-3.60;99.90;;;;;;5122217;27;20085;-60
2022/11/20 07:26:09;;;;;;;12.98;7.68;;;-3.60;99.90;;;;;;5095229;28;20024;-60
2022/11/20 07:28:35;;;;;;;11.18;6.68;;;-3.60;99.90;;;;;;5102956;28;20842;-60
2022/11/20 07:31:01;;;;;;;13.32;7.45;;;-3.60;99.90;;;;;;5105572;28;20047;-60
2022/11/20 07:33:27;;;;;;;11.10;7.07;;;-3.60;99.90;;;;;;5105130;28;20060;-60
2022/11/20 07:35:52;;;;;;;10.40;7.07;;;-3.60;99.90;;;;;;5105748;28;20035;-60
2022/11/20 07:38:18;;;;;;;11.95;7.20;;;-3.50;99.90;;;;;;5105426;28;20024;-60
2022/11/20 07:40:43;;;;;;;11.30;7.25;;;-3.50;99.90;;;;;;5107165;28;20023;-60
2022/11/20 07:43:09;;;;;;;12.38;7.32;;;-3.50;99.90;;;;;;5097905;28;20027;-60
2022/11/20 07:45:35;;;;;;;14.30;8.63;;;-3.50;99.90;;;;;;5096359;28;20020;-60
2022/11/20 07:48:00;;;;;;;11.50;7.40;;;-3.40;99.90;;;;;;5107374;28;20024;-60
2022/11/20 07:50:26;;;;;;;16.50;8.00;;;-3.40;99.90;;;;;;5098225;28;20012;-60
2022/11/20 07:52:52;;;;;;;11.38;7.43;;;-3.30;99.90;;;;;;5109128;27;20473;-60
2022/11/20 07:55:17;;;;;;;12.25;7.70;;;-3.30;99.90;;;;;;5102066;28;20020;-60
2022/11/20 07:57:43;;;;;;;11.60;7.28;;;-3.30;99.90;;;;;;5081070;28;20038;-60
2022/11/20 08:00:10;;;;;;;14.55;8.10;;;-3.20;99.90;;;;;;5096924;28;20033;-60
2022/11/20 08:02:40;;;;;;;16.25;9.23;;;-3.10;99.90;;;;;;5108945;28;20024;-60
2022/11/20 08:05:10;;;;;;;14.20;8.82;;;-3.10;99.90;;;;;;5097916;28;20024;-60
2022/11/20 08:07:40;;;;;;;15.98;9.55;;;-3.00;99.90;;;;;;5093575;28;20039;-60
2022/11/20 08:10:07;;;;;;;20.27;11.68;;;-2.90;99.90;;;;;;5096413;28;20039;-60
2022/11/20 08:15:17;;;;;;;19.02;9.82;;;-2.90;99.90;;;;;;5106961;27;20038;-60
2022/11/20 08:17:43;;;;;;;15.57;9.50;;;-2.80;99.90;;;;;;5106474;27;20031;-60
2022/11/20 08:20:09;;;;;;;16.50;9.55;;;-2.80;99.90;;;;;;5103366;28;20027;-60
2022/11/20 08:22:34;;;;;;;25.00;14.52;;;-2.70;99.90;;;;;;5112932;27;20115;-60
2022/11/20 08:25:00;;;;;;;24.73;14.45;;;-2.60;99.90;;;;;;5110200;28;20020;-60
2022/11/20 08:27:25;;;;;;;24.73;14.93;;;-2.60;99.90;;;;;;5109062;28;20488;-60
2022/11/20 08:29:51;;;;;;;23.75;14.32;;;-2.50;99.90;;;;;;5106207;28;20610;-60
2022/11/20 08:32:16;;;;;;;23.70;14.85;;;-2.50;99.90;;;;;;5108356;28;20054;-60
2022/11/20 08:34:42;;;;;;;24.45;15.18;;;-2.40;99.90;;;;;;5102910;28;20043;-60
2022/11/20 08:37:07;;;;;;;25.20;14.85;;;-2.30;99.90;;;;;;5077923;28;20589;-60
2022/11/20 08:39:33;;;;;;;30.27;16.88;;;-2.20;99.90;;;;;;5103027;28;20036;-60
2022/11/20 08:41:58;;;;;;;29.58;17.65;;;-2.20;99.90;;;;;;5104356;28;20102;-60
2022/11/20 08:44:24;;;;;;;32.72;20.52;;;-2.10;99.90;;;;;;5107795;28;20028;-60
2022/11/20 08:46:49;;;;;;;29.17;18.02;;;-2.00;99.90;;;;;;5107870;28;20047;-60
2022/11/20 08:49:15;;;;;;;29.92;16.88;;;-1.90;99.90;;;;;;5105911;28;20078;-60
2022/11/20 08:51:42;;;;;;;28.92;17.45;;;-1.90;99.90;;;;;;5107053;28;20034;-60
2022/11/20 08:54:07;;;;;;;27.48;16.92;;;-1.80;99.90;;;;;;5103129;28;20434;-60
2022/11/20 08:56:33;;;;;;;26.02;15.65;;;-1.70;99.90;;;;;;5104321;28;20541;-60
2022/11/20 08:58:59;;;;;;;26.25;15.95;;;-1.60;99.90;;;;;;5106710;28;20097;-60
2022/11/20 09:01:25;;;;;;;24.23;14.15;;;-1.50;99.90;;;;;;5099083;28;20024;-60
2022/11/20 09:03:50;;;;;;;32.30;18.75;;;-1.50;99.90;;;;;;5108539;28;20524;-60
2022/11/20 09:06:16;;;;;;;30.73;18.98;;;-1.40;99.90;;;;;;5106688;28;20031;-60
2022/11/20 09:08:42;;;;;;;31.80;19.25;;;-1.40;99.90;;;;;;5106122;28;20103;-60
2022/11/20 09:11:08;;;;;;;32.92;21.17;;;-1.30;99.90;;;;;;5108026;28;20035;-60
2022/11/20 09:13:35;;;;;;;36.95;21.10;;;-1.20;99.90;;;;;;5107132;28;20039;-60
2022/11/20 09:16:07;;;;;;;31.60;18.70;;;-1.20;99.90;;;;;;5105323;28;20019;-60
2022/11/20 09:18:33;;;;;;;30.23;19.17;;;-1.10;99.90;;;;;;5098459;28;20027;-60
2022/11/20 09:21:00;;;;;;;35.50;20.05;;;-1.10;99.90;;;;;;5104407;27;20054;-60
2022/11/20 09:23:27;;;;;;;36.60;20.33;;;-1.00;99.90;;;;;;5093163;28;20499;-60
2022/11/20 09:25:55;;;;;;;32.20;20.23;;;-0.90;99.90;;;;;;5097534;28;20436;-60
2022/11/20 09:28:20;;;;;;;33.08;20.30;;;-0.90;99.90;;;;;;5102590;28;20376;-60
2022/11/20 09:30:46;;;;;;;32.08;18.80;;;-0.80;99.90;;;;;;5098308;28;20492;-60
2022/11/20 09:33:11;;;;;;;29.73;18.48;;;-0.80;99.90;;;;;;5112854;28;20376;-60
2022/11/20 09:35:37;;;;;;;35.72;21.77;;;-0.70;99.90;;;;;;5099709;28;20042;-60
2022/11/20 09:38:10;;;;;;;34.03;21.63;;;-0.60;99.90;;;;;;5106154;28;20392;-60
2022/11/20 09:40:39;;;;;;;35.53;21.40;;;-0.50;99.90;;;;;;5088721;28;20016;-60
2022/11/20 09:43:16;;;;;;;35.30;21.77;;;-0.50;99.90;;;;;;5106600;28;20052;-60
2022/11/20 09:46:12;;;;;;;33.15;21.30;;;-0.30;99.90;;;;;;5101226;28;20289;-60
2022/11/20 09:49:00;;;;;;;33.90;22.25;;;-0.20;99.90;;;;;;5100185;28;20028;-60
2022/11/20 09:51:59;;;;;;;34.95;22.33;;;-0.10;99.90;;;;;;5095868;28;20054;-60
2022/11/20 09:54:33;;;;;;;32.78;20.83;;;0.00;99.90;;;;;;5069535;28;20043;-60
2022/11/20 09:57:20;;;;;;;32.70;20.80;;;0.10;99.90;;;;;;5106181;28;20061;-60
2022/11/20 09:59:49;;;;;;;34.35;21.80;;;0.30;99.90;;;;;;5095942;28;20079;-60
2022/11/20 10:02:26;;;;;;;36.33;21.15;;;0.40;99.90;;;;;;5100033;28;20030;-60
2022/11/20 10:05:15;;;;;;;34.97;21.83;;;0.50;99.90;;;;;;5098962;28;20479;-60
2022/11/20 10:07:58;;;;;;;35.60;21.48;;;0.60;99.90;;;;;;5103366;27;20019;-60
2022/11/20 10:10:49;;;;;;;35.20;23.10;;;0.70;99.90;;;;;;5111433;27;20465;-60
2022/11/20 10:13:37;;;;;;;33.45;21.48;;;0.80;99.90;;;;;;5100594;27;20023;-60
2022/11/20 10:16:15;;;;;;;34.97;22.70;;;0.90;99.90;;;;;;5109823;28;20024;-60
2022/11/20 10:19:05;;;;;;;35.97;22.55;;;1.00;99.90;;;;;;5105622;28;20038;-60
2022/11/20 10:21:42;;;;;;;;;;;1.00;99.90;;;;;;5088102;28;20052;-60
2022/11/20 10:24:28;;;;;;;41.42;23.50;;;0.90;99.90;;;;;;5103734;28;20400;-60
2022/11/20 10:27:26;;;;;;;38.55;23.40;;;0.90;99.90;;;;;;5108417;27;20451;-60
2022/11/20 10:30:07;;;;;;;37.15;23.92;;;1.00;99.90;;;;;;5097837;28;20020;-60
2022/11/20 10:32:38;;;;;;;38.42;23.98;;;1.00;99.90;;;;;;5096436;28;20140;-60
2022/11/20 10:35:21;;;;;;;43.50;23.77;;;1.00;99.90;;;;;;5111775;28;20030;-60
2022/11/20 10:37:53;;;;;;;38.15;25.25;;;1.00;99.90;;;;;;5102725;28;20054;-60
2022/11/20 10:40:39;;;;;;;41.63;24.42;;;1.10;99.90;;;;;;5086234;28;20030;-60
2022/11/20 10:43:33;;;;;;;44.08;26.15;;;1.10;99.90;;;;;;5091450;28;20120;-60
2022/11/20 10:46:08;;;;;;;41.65;24.80;;;1.10;99.90;;;;;;5112459;28;20124;-60
2022/11/20 10:48:35;;;;;;;39.05;24.52;;;1.10;99.90;;;;;;5109920;28;20448;-60
2022/11/20 10:51:38;;;;;;;35.47;23.67;;;1.10;99.90;;;;;;5112588;28;20112;-60
2022/11/20 10:54:43;;;;;;;36.95;22.70;;;1.20;99.90;;;;;;5099086;27;20020;-60
2022/11/20 10:57:51;;;;;;;40.55;24.42;;;1.30;99.90;;;;;;5091390;28;20024;-60
2022/11/20 11:00:17;;;;;;;39.25;25.45;;;1.30;99.90;;;;;;5108495;28;20024;-60
2022/11/20 11:02:50;;;;;;;38.78;23.42;;;1.40;99.90;;;;;;5108276;28;20035;-59
2022/11/20 11:05:40;;;;;;;31.60;20.40;;;1.50;99.90;;;;;;5110842;27;20032;-60
2022/11/20 11:08:12;;;;;;;40.00;25.27;;;1.60;99.90;;;;;;5109209;28;20252;-60
2022/11/20 11:11:01;;;;;;;47.28;27.17;;;1.60;99.90;;;;;;5094574;28;20433;-60
2022/11/20 11:13:28;;;;;;;37.70;24.48;;;1.70;99.90;;;;;;5084579;28;20048;-60
2022/11/20 11:15:54;;;;;;;34.65;20.85;;;1.70;99.90;;;;;;5101247;28;20024;-60
2022/11/20 11:18:36;;;;;;;31.90;20.33;;;1.80;99.90;;;;;;5104833;28;20583;-60
2022/11/20 11:21:03;;;;;;;34.90;22.15;;;1.90;99.90;;;;;;5107324;27;20019;-60
2022/11/20 11:23:40;;;;;;;38.50;23.73;;;2.00;99.90;;;;;;5104360;27;20039;-61
2022/11/20 11:26:23;;;;;;;36.65;23.70;;;2.10;99.90;;;;;;5114350;28;20027;-60
2022/11/20 11:28:57;;;;;;;38.28;22.73;;;2.20;99.90;;;;;;5102766;28;20023;-60
2022/11/20 11:31:28;;;;;;;36.65;23.58;;;2.30;99.90;;;;;;5109185;28;20156;-60
2022/11/20 11:34:16;;;;;;;32.38;21.80;;;2.30;99.90;;;;;;5104403;28;20020;-61
2022/11/20 11:36:52;;;;;;;35.78;21.77;;;2.40;99.90;;;;;;5106991;27;20016;-61
2022/11/20 11:39:20;;;;;;;33.75;21.13;;;2.50;99.90;;;;;;5111386;28;20422;-60
2022/11/20 11:41:46;;;;;;;35.42;23.50;;;2.60;99.90;;;;;;5097212;28;20020;-61
2022/11/20 11:47:03;;;;;;;35.28;23.50;;;2.50;99.90;;;;;;5101172;27;20050;-61
2022/11/20 11:49:29;;;;;;;39.40;25.27;;;2.50;99.90;;;;;;5095929;28;20381;-60
2022/11/20 11:52:16;;;;;;;35.70;23.83;;;2.50;99.90;;;;;;5107719;28;20016;-60
2022/11/20 11:54:54;;;;;;;38.13;23.95;;;2.40;99.90;;;;;;5078298;28;20032;-61
2022/11/20 11:57:32;;;;;;;39.10;24.60;;;2.40;99.90;;;;;;5100887;28;20028;-60
2022/11/20 12:00:01;;;;;;;39.58;24.80;;;2.40;99.90;;;;;;5107242;28;20041;-60
2022/11/20 12:02:57;;;;;;;39.95;24.23;;;2.40;99.90;;;;;;5104959;28;20024;-60
2022/11/20 12:05:42;;;;;;;41.65;24.38;;;2.40;99.90;;;;;;5095672;28;20507;-60
2022/11/20 12:08:32;;;;;;;43.60;26.58;;;2.40;99.90;;;;;;5100365;28;20016;-61
2022/11/20 12:11:14;;;;;;;47.85;28.75;;;2.50;99.90;;;;;;5104511;28;20008;-61
2022/11/20 12:13:58;;;;;;;50.72;28.35;;;2.50;99.90;;;;;;5099668;28;20524;-61
2022/11/20 12:16:24;;;;;;;50.95;29.73;;;2.40;99.90;;;;;;5100554;28;20032;-61
2022/11/20 12:18:51;;;;;;;47.58;30.88;;;2.40;99.90;;;;;;5095384;28;20020;-60
2022/11/20 12:21:23;;;;;;;49.58;28.65;;;2.40;99.90;;;;;;5112164;27;20023;-60
2022/11/20 12:24:00;;;;;;;53.78;29.15;;;2.50;99.90;;;;;;5104290;27;20380;-61
2022/11/20 12:26:44;;;;;;;55.58;29.95;;;2.50;99.90;;;;;;5103116;28;20027;-60
2022/11/20 12:29:24;;;;;;;49.58;28.45;;;2.50;99.90;;;;;;5096956;28;20099;-61
2022/11/20 12:32:36;;;;;;;53.55;30.13;;;2.60;99.90;;;;;;5106384;28;20338;-61
2022/11/20 12:35:30;;;;;;;55.80;28.63;;;2.60;99.90;;;;;;5075374;28;20512;-61
2022/11/20 12:38:29;;;;;;;61.13;33.13;;;2.70;99.90;;;;;;5096637;28;20112;-61
2022/11/20 12:47:27;;;;;;;59.40;31.70;;;2.60;99.90;;;;;;5070858;28;20361;-60
2022/11/20 12:50:00;;;;;;;61.38;32.83;;;2.60;99.90;;;;;;5104780;28;20059;-61
2022/11/20 12:52:50;;;;;;;58.55;30.30;;;2.60;99.90;;;;;;5100584;28;20035;-61
2022/11/20 12:55:36;;;;;;;58.60;30.85;;;2.60;99.90;;;;;;5090209;28;20472;-61
2022/11/20 12:58:39;;;;;;;51.00;27.98;;;2.70;99.90;;;;;;5102716;28;20035;-61
2022/11/20 13:01:43;;;;;;;45.10;25.35;;;2.80;99.90;;;;;;5090352;28;20020;-61
2022/11/20 13:04:18;;;;;;;58.50;29.00;;;2.90;99.90;;;;;;5103567;28;20430;-61
2022/11/20 13:06:44;;;;;;;44.28;25.23;;;2.90;99.90;;;;;;5098657;28;20028;-60
2022/11/20 13:09:15;;;;;;;46.45;28.63;;;3.00;99.90;;;;;;5095746;28;20524;-60